Wetterdaten: Woche 25.07.11 - 31.07.11 (KW30)
Datum Zeit Temp. A. Feuchte A. Luftdruck Regen Wind Richtung Taupunkt Windchill Windben
25.07.2011 00:00 12,7 C 82 % 1008,9 hPa 0,8 l/m 5,4 km/h S-SO 9,7 C 12,7 C 26,1 km/h
25.07.2011 01:00 12,6 C 82 % 1009,0 hPa 0,0 l/m 3,9 km/h NW 9,5 C 12,6 C 20,5 km/h
25.07.2011 02:00 13,0 C 79 % 1009,0 hPa 0,0 l/m 4,6 km/h SW 9,5 C 13,0 C 19,3 km/h
25.07.2011 03:00 13,1 C 79 % 1009,1 hPa 0,0 l/m 4,3 km/h NW 9,5 C 13,1 C 17,3 km/h
25.07.2011 04:00 12,9 C 80 % 1009,2 hPa 0,3 l/m 4,5 km/h N-NW 9,5 C 12,9 C 18,5 km/h
25.07.2011 05:00 12,6 C 82 % 1009,5 hPa 0,0 l/m 4,2 km/h NW 9,6 C 12,6 C 17,7 km/h
25.07.2011 06:00 12,9 C 80 % 1009,6 hPa 0,0 l/m 4,9 km/h NW 9,4 C 12,9 C 19,3 km/h
25.07.2011 07:00 13,0 C 80 % 1009,8 hPa 0,0 l/m 4,8 km/h NW 9,6 C 13,0 C 13,7 km/h
25.07.2011 08:00 13,2 C 80 % 1010,1 hPa 0,0 l/m 3,9 km/h N-NW 9,9 C 13,2 C 12,9 km/h
25.07.2011 09:00 13,4 C 81 % 1010,0 hPa 0,0 l/m 3,9 km/h NW 10,2 C 13,4 C 12,1 km/h
25.07.2011 10:00 13,8 C 79 % 1010,3 hPa 0,0 l/m 3,5 km/h N-NW 10,3 C 13,8 C 11,3 km/h
25.07.2011 11:00 15,0 C 74 % 1010,2 hPa 0,0 l/m 5,0 km/h NW 10,4 C 15,0 C 15,7 km/h
25.07.2011 12:00 15,6 C 72 % 1010,0 hPa 0,0 l/m 4,2 km/h N-NW 10,6 C 15,6 C 13,7 km/h
25.07.2011 13:00 17,4 C 68 % 1009,7 hPa 0,0 l/m 5,5 km/h N-NW 11,4 C 17,4 C 18,1 km/h
25.07.2011 14:00 18,0 C 65 % 1009,2 hPa 0,0 l/m 4,2 km/h S 11,2 C 18,0 C 16,9 km/h
25.07.2011 15:00 18,1 C 63 % 1009,1 hPa 0,0 l/m 3,3 km/h NW 11,0 C 18,1 C 15,3 km/h
25.07.2011 16:00 18,6 C 62 % 1009,0 hPa 0,0 l/m 3,8 km/h NW 11,2 C 18,6 C 17,7 km/h
25.07.2011 17:00 18,3 C 62 % 1009,0 hPa 0,0 l/m 3,8 km/h S-SW 10,9 C 18,3 C 15,7 km/h
25.07.2011 18:00 17,7 C 63 % 1009,2 hPa 0,0 l/m 2,9 km/h NW 10,5 C 17,7 C 12,9 km/h
25.07.2011 19:00 17,1 C 65 % 1009,5 hPa 0,0 l/m 1,8 km/h NW 10,4 C 17,1 C 8,4 km/h
25.07.2011 20:00 16,6 C 67 % 1009,7 hPa 0,0 l/m 1,9 km/h NW 10,4 C 16,6 C 7,6 km/h
25.07.2011 21:00 16,2 C 69 % 1010,4 hPa 0,0 l/m 2,5 km/h N-NW 10,5 C 16,2 C 7,2 km/h
25.07.2011 22:00 15,9 C 72 % 1010,4 hPa 0,0 l/m 0,7 km/h SW 10,7 C 15,9 C 6,4 km/h
25.07.2011 23:00 15,7 C 73 % 1010,4 hPa 0,0 l/m 1,3 km/h W 10,8 C 15,7 C 7,6 km/h
26.07.2011 00:00 15,7 C 72 % 1010,3 hPa 0,0 l/m 1,5 km/h NW 10,7 C 15,7 C 7,2 km/h
26.07.2011 01:00 15,7 C 72 % 1010,2 hPa 0,0 l/m 1,1 km/h NW 10,7 C 15,7 C 6,4 km/h
26.07.2011 02:00 15,7 C 73 % 1010,2 hPa 0,0 l/m 0,6 km/h W-NW 10,8 C 15,7 C 5,2 km/h
26.07.2011 03:00 15,7 C 73 % 1010,2 hPa 0,0 l/m 1,9 km/h NW 10,8 C 15,7 C 8,4 km/h
26.07.2011 04:00 15,4 C 75 % 1010,3 hPa 0,0 l/m 3,8 km/h N-NW 10,9 C 15,4 C 9,3 km/h
26.07.2011 05:00 15,3 C 76 % 1010,3 hPa 0,0 l/m 3,0 km/h NW 11,1 C 15,3 C 9,3 km/h
26.07.2011 06:00 15,4 C 76 % 1010,7 hPa 0,0 l/m 2,3 km/h NW 11,1 C 15,4 C 8,4 km/h
26.07.2011 07:00 15,3 C 78 % 1011,0 hPa 0,0 l/m 4,1 km/h N-NW 11,4 C 15,3 C 12,5 km/h
26.07.2011 08:00 15,1 C 80 % 1011,3 hPa 0,0 l/m 4,8 km/h N-NW 11,7 C 15,1 C 12,5 km/h
26.07.2011 09:00 15,3 C 79 % 1011,5 hPa 0,0 l/m 4,3 km/h N-NW 11,7 C 15,3 C 12,9 km/h
26.07.2011 10:00 15,6 C 79 % 1012,1 hPa 0,0 l/m 2,5 km/h NW 12,1 C 15,6 C 8,4 km/h
26.07.2011 11:00 16,1 C 79 % 1012,6 hPa 0,0 l/m 1,7 km/h NW 12,5 C 16,1 C 8,0 km/h
26.07.2011 12:00 16,7 C 78 % 1012,8 hPa 0,0 l/m 2,0 km/h NW 12,9 C 16,7 C 7,2 km/h
26.07.2011 13:00 17,3 C 78 % 1013,0 hPa 0,5 l/m 1,1 km/h N-NO 13,5 C 17,3 C 5,2 km/h
26.07.2011 14:00 16,9 C 81 % 1013,3 hPa 0,3 l/m 2,3 km/h N 13,6 C 16,9 C 8,1 km/h
26.07.2011 15:00 17,3 C 80 % 1013,3 hPa 0,0 l/m 1,9 km/h N-NW 13,8 C 17,3 C 7,2 km/h
26.07.2011 16:00 17,8 C 77 % 1013,4 hPa 0,0 l/m 2,0 km/h S-SO 13,8 C 17,8 C 7,6 km/h
26.07.2011 17:00 18,8 C 73 % 1013,4 hPa 0,0 l/m 2,3 km/h NW 13,9 C 18,8 C 8,1 km/h
26.07.2011 18:00 18,9 C 72 % 1013,5 hPa 0,0 l/m 1,7 km/h N 13,7 C 18,9 C 6,8 km/h
26.07.2011 19:00 18,6 C 72 % 1013,7 hPa 0,0 l/m 2,2 km/h NW 13,5 C 18,6 C 7,2 km/h
26.07.2011 20:00 18,0 C 75 % 1014,2 hPa 0,0 l/m 0,1 km/h N 13,4 C 18,0 C 1,6 km/h
26.07.2011 21:00 17,3 C 77 % 1014,4 hPa 0,0 l/m 0,0 km/h N 13,2 C 17,3 C 0,4 km/h
26.07.2011 22:00 16,7 C 80 % 1014,6 hPa 0,0 l/m 0,0 km/h N 13,2 C 16,7 C 0,0 km/h
26.07.2011 23:00 16,3 C 81 % 1014,6 hPa 0,0 l/m 0,0 km/h N 13,1 C 16,3 C 0,4 km/h
27.07.2011 00:00 15,6 C 82 % 1014,8 hPa 0,0 l/m 0,0 km/h N 12,5 C 15,6 C 0,4 km/h
27.07.2011 01:00 15,3 C 82 % 1014,8 hPa 0,0 l/m 0,4 km/h S-SW 12,2 C 15,3 C 4,0 km/h
27.07.2011 02:00 15,3 C 82 % 1014,6 hPa 0,0 l/m 0,9 km/h S-SW 12,2 C 15,3 C 7,2 km/h
27.07.2011 03:00 15,2 C 82 % 1014,7 hPa 0,0 l/m 0,1 km/h N 12,1 C 15,2 C 2,4 km/h
27.07.2011 04:00 15,1 C 82 % 1014,9 hPa 0,0 l/m 0,1 km/h N 12,0 C 15,1 C 0,8 km/h
27.07.2011 05:00 14,9 C 82 % 1015,2 hPa 0,0 l/m 0,0 km/h N 11,9 C 14,9 C 1,6 km/h
27.07.2011 06:00 14,9 C 82 % 1015,4 hPa 0,0 l/m 0,0 km/h N 11,9 C 14,9 C 0,4 km/h
27.07.2011 07:00 15,4 C 82 % 1015,7 hPa 0,0 l/m 0,1 km/h N 12,3 C 15,4 C 2,4 km/h
27.07.2011 08:00 16,9 C 80 % 1016,0 hPa 0,0 l/m 0,4 km/h N 13,4 C 16,9 C 4,8 km/h
27.07.2011 09:00 18,9 C 73 % 1016,3 hPa 0,0 l/m 1,7 km/h N 13,9 C 18,9 C 8,0 km/h
27.07.2011 10:00 20,3 C 68 % 1016,5 hPa 0,0 l/m 3,3 km/h N-NO 14,1 C 20,3 C 8,9 km/h
27.07.2011 11:00 22,7 C 61 % 1016,3 hPa 0,0 l/m 2,0 km/h N-NO 14,7 C 22,7 C 7,2 km/h
27.07.2011 12:00 25,8 C 53 % 1016,2 hPa 0,0 l/m 1,5 km/h N-NW 15,4 C 25,8 C 6,4 km/h
27.07.2011 13:00 26,1 C 50 % 1016,0 hPa 0,0 l/m 1,4 km/h N-NW 14,8 C 26,1 C 6,0 km/h
27.07.2011 14:00 28,0 C 46 % 1015,6 hPa 0,0 l/m 1,4 km/h N 15,3 C 28,0 C 6,0 km/h
27.07.2011 15:00 28,2 C 46 % 1015,3 hPa 0,0 l/m 0,4 km/h N 15,4 C 28,2 C 3,2 km/h
27.07.2011 16:00 28,2 C 46 % 1015,1 hPa 0,0 l/m 0,4 km/h O 15,3 C 28,2 C 4,0 km/h
27.07.2011 17:00 27,1 C 48 % 1015,1 hPa 0,0 l/m 0,9 km/h N 14,9 C 27,1 C 4,4 km/h
27.07.2011 18:00 24,2 C 56 % 1015,6 hPa 0,8 l/m 1,5 km/h O 14,7 C 24,2 C 8,4 km/h
27.07.2011 19:00 21,1 C 74 % 1015,9 hPa 0,0 l/m 0,1 km/h N 16,2 C 21,1 C 2,0 km/h
27.07.2011 20:00 20,3 C 76 % 1015,7 hPa 0,0 l/m 0,0 km/h N 16,0 C 20,3 C 0,4 km/h
27.07.2011 21:00 19,4 C 78 % 1015,7 hPa 0,0 l/m 0,0 km/h N 15,5 C 19,4 C 0,0 km/h
27.07.2011 22:00 18,7 C 80 % 1015,7 hPa 0,0 l/m 0,0 km/h N 15,1 C 18,7 C 0,4 km/h
27.07.2011 23:00 17,9 C 80 % 1015,7 hPa 0,0 l/m 0,0 km/h N 14,4 C 17,9 C 0,4 km/h
28.07.2011 00:00 16,9 C 81 % 1015,8 hPa 0,0 l/m 0,0 km/h N 13,6 C 16,9 C 0,4 km/h
28.07.2011 01:00 16,1 C 82 % 1015,6 hPa 0,0 l/m 0,0 km/h N 13,0 C 16,1 C 0,4 km/h
28.07.2011 02:00 15,9 C 82 % 1015,3 hPa 0,0 l/m 0,0 km/h N 12,9 C 15,9 C 0,4 km/h
28.07.2011 03:00 15,9 C 82 % 1015,3 hPa 0,0 l/m 0,0 km/h N 12,7 C 15,9 C 0,0 km/h
28.07.2011 04:00 15,8 C 81 % 1015,0 hPa 0,0 l/m 0,0 km/h N 12,5 C 15,8 C 0,0 km/h
28.07.2011 05:00 15,7 C 81 % 1015,0 hPa 0,0 l/m 0,0 km/h N 12,5 C 15,7 C 0,0 km/h
28.07.2011 06:00 15,9 C 81 % 1015,2 hPa 0,0 l/m 0,0 km/h N 12,6 C 15,9 C 0,0 km/h
28.07.2011 07:00 16,5 C 81 % 1015,3 hPa 0,0 l/m 0,0 km/h N 13,2 C 16,5 C 0,4 km/h
28.07.2011 08:00 17,4 C 80 % 1015,4 hPa 0,0 l/m 0,0 km/h N 13,9 C 17,4 C 0,0 km/h
28.07.2011 09:00 18,3 C 81 % 1015,2 hPa 0,3 l/m 0,0 km/h N 15,0 C 18,3 C 1,2 km/h
28.07.2011 10:00 18,8 C 82 % 1015,4 hPa 1,0 l/m 0,4 km/h S-SW 15,6 C 18,8 C 2,4 km/h
28.07.2011 11:00 19,5 C 81 % 1015,3 hPa 0,5 l/m 0,0 km/h N 16,2 C 19,5 C 1,6 km/h
28.07.2011 12:00 20,7 C 81 % 1015,1 hPa 0,0 l/m 0,0 km/h N 17,3 C 20,7 C 1,6 km/h
28.07.2011 13:00 21,2 C 78 % 1014,8 hPa 1,0 l/m 0,0 km/h N 17,2 C 21,2 C 2,4 km/h
28.07.2011 14:00 19,1 C 80 % 1015,1 hPa 26,8 l/m 1,3 km/h N-NO 15,6 C 19,1 C 6,4 km/h
28.07.2011 15:00 17,6 C 81 % 1015,1 hPa 5,7 l/m 0,0 km/h N 14,3 C 17,6 C 0,8 km/h
28.07.2011 16:00 17,7 C 80 % 1014,9 hPa 1,0 l/m 0,0 km/h N 14,2 C 17,7 C 1,2 km/h
28.07.2011 17:00 17,4 C 80 % 1014,8 hPa 1,8 l/m 0,0 km/h N 13,9 C 17,4 C 0,0 km/h
28.07.2011 18:00 17,3 C 80 % 1014,6 hPa 1,0 l/m 0,0 km/h N 13,7 C 17,3 C 0,0 km/h
28.07.2011 19:00 17,3 C 79 % 1014,6 hPa 1,6 l/m 0,0 km/h N 13,6 C 17,3 C 0,0 km/h
28.07.2011 20:00 17,0 C 79 % 1014,9 hPa 2,1 l/m 0,0 km/h N 13,3 C 17,0 C 0,0 km/h
28.07.2011 21:00 16,6 C 79 % 1015,2 hPa 0,8 l/m 0,0 km/h N 12,9 C 16,6 C 0,4 km/h
28.07.2011 22:00 15,9 C 79 % 1015,1 hPa 0,0 l/m 0,0 km/h N 12,3 C 15,9 C 0,8 km/h
28.07.2011 23:00 15,8 C 79 % 1015,1 hPa 0,3 l/m 0,0 km/h N 12,1 C 15,8 C 0,0 km/h
29.07.2011 00:00 15,8 C 78 % 1014,8 hPa 0,0 l/m 0,0 km/h N 12,0 C 15,8 C 0,8 km/h
29.07.2011 01:00 15,8 C 78 % 1014,5 hPa 0,0 l/m 0,0 km/h N 12,0 C 15,8 C 0,8 km/h
29.07.2011 02:00 16,0 C 78 % 1014,3 hPa 0,3 l/m 0,5 km/h N-NW 12,1 C 16,0 C 3,2 km/h
29.07.2011 03:00 16,1 C 78 % 1014,0 hPa 0,0 l/m 1,0 km/h N-NW 12,3 C 16,1 C 5,2 km/h
29.07.2011 04:00 16,1 C 78 % 1013,9 hPa 0,0 l/m 1,7 km/h N 12,3 C 16,1 C 6,4 km/h
29.07.2011 05:00 16,0 C 80 % 1014,0 hPa 0,0 l/m 1,6 km/h N-NW 12,5 C 16,0 C 7,2 km/h
29.07.2011 06:00 16,1 C 81 % 1014,3 hPa 0,0 l/m 3,2 km/h N-NW 12,7 C 16,1 C 8,9 km/h
29.07.2011 07:00 16,4 C 82 % 1014,3 hPa 0,0 l/m 3,2 km/h N-NW 13,2 C 16,4 C 10,5 km/h
29.07.2011 08:00 16,9 C 82 % 1014,3 hPa 0,0 l/m 4,8 km/h N-NW 13,8 C 16,9 C 15,3 km/h
29.07.2011 09:00 17,6 C 82 % 1014,3 hPa 0,0 l/m 4,8 km/h N-NW 14,5 C 17,6 C 16,9 km/h
29.07.2011 10:00 18,8 C 79 % 1014,3 hPa 0,0 l/m 5,6 km/h N-NW 15,0 C 18,8 C 16,9 km/h
29.07.2011 11:00 19,3 C 79 % 1014,4 hPa 0,0 l/m 4,0 km/h N-NW 15,4 C 19,3 C 14,5 km/h
29.07.2011 12:00 22,0 C 69 % 1014,0 hPa 0,0 l/m 5,6 km/h N-NW 16,0 C 22,1 C 20,1 km/h
29.07.2011 13:00 21,0 C 72 % 1013,8 hPa 0,0 l/m 4,0 km/h NW 15,6 C 21,0 C 15,3 km/h
29.07.2011 14:00 22,3 C 68 % 1013,3 hPa 0,0 l/m 4,0 km/h N-NW 16,0 C 22,3 C 14,5 km/h
29.07.2011 15:00 23,2 C 65 % 1012,6 hPa 0,0 l/m 3,2 km/h N-NW 16,2 C 23,2 C 12,9 km/h
29.07.2011 16:00 24,0 C 61 % 1012,2 hPa 0,0 l/m 3,2 km/h N-NW 15,9 C 24,0 C 11,3 km/h
29.07.2011 17:00 22,4 C 66 % 1011,7 hPa 0,0 l/m 2,4 km/h SW 15,7 C 22,4 C 20,1 km/h
29.07.2011 18:00 23,1 C 61 % 1011,2 hPa 0,0 l/m 3,2 km/h S 15,2 C 23,1 C 18,5 km/h
29.07.2011 19:00 21,8 C 59 % 1011,4 hPa 0,0 l/m 1,6 km/h W-SW 13,4 C 21,8 C 8,9 km/h
29.07.2011 20:00 20,1 C 66 % 1011,8 hPa 0,0 l/m 3,2 km/h SW 13,5 C 20,1 C 24,1 km/h
29.07.2011 21:00 19,1 C 68 % 1012,3 hPa 0,0 l/m 3,2 km/h W-NW 13,0 C 19,1 C 16,9 km/h
29.07.2011 22:00 18,8 C 69 % 1012,6 hPa 0,0 l/m 3,2 km/h S-SW 12,8 C 18,8 C 17,7 km/h
29.07.2011 23:00 18,0 C 71 % 1012,6 hPa 0,0 l/m 1,6 km/h NW 12,5 C 18,0 C 17,7 km/h
30.07.2011 00:00 17,4 C 72 % 1012,8 hPa 0,0 l/m 1,6 km/h S 12,3 C 17,4 C 16,1 km/h
30.07.2011 01:00 16,8 C 75 % 1012,4 hPa 0,0 l/m 1,6 km/h S 12,3 C 16,8 C 10,4 km/h
30.07.2011 02:00 17,3 C 76 % 1012,1 hPa 0,0 l/m 1,6 km/h N-NW 13,0 C 17,3 C 10,5 km/h
30.07.2011 03:00 17,0 C 80 % 1011,6 hPa 0,0 l/m 1,6 km/h N-NW 13,5 C 17,0 C 8,9 km/h
30.07.2011 04:00 16,6 C 81 % 1010,8 hPa 0,3 l/m 1,6 km/h N-NW 13,3 C 16,6 C 12,9 km/h
30.07.2011 05:00 16,5 C 81 % 1010,5 hPa 0,0 l/m 2,4 km/h NW 13,2 C 16,5 C 10,5 km/h
30.07.2011 06:00 16,5 C 81 % 1010,3 hPa 0,0 l/m 1,6 km/h S-SW 13,2 C 16,5 C 7,2 km/h
30.07.2011 07:00 17,0 C 81 % 1010,3 hPa 0,0 l/m 1,6 km/h NW 13,7 C 17,0 C 14,5 km/h
30.07.2011 08:00 18,0 C 78 % 1010,1 hPa 0,0 l/m 1,6 km/h S-SW 14,2 C 18,0 C 16,9 km/h
30.07.2011 09:00 19,1 C 76 % 1009,9 hPa 0,0 l/m 2,4 km/h W-SW 14,7 C 19,1 C 16,1 km/h
30.07.2011 10:00 21,0 C 69 % 1009,5 hPa 0,0 l/m 3,2 km/h NW 15,0 C 21,0 C 20,9 km/h
30.07.2011 11:00 21,4 C 66 % 1009,4 hPa 0,0 l/m 4,8 km/h NW 14,7 C 21,4 C 25,0 km/h
30.07.2011 12:00 22,4 C 62 % 1009,3 hPa 0,0 l/m 4,8 km/h W-SW 14,6 C 22,4 C 22,5 km/h
30.07.2011 13:00 22,4 C 57 % 1009,3 hPa 0,0 l/m 5,6 km/h W-SW 13,3 C 22,4 C 25,8 km/h
30.07.2011 14:00 22,6 C 52 % 1009,6 hPa 0,0 l/m 7,2 km/h W-SW 12,1 C 22,4 C 31,4 km/h
30.07.2011 15:00 21,6 C 53 % 1010,1 hPa 0,0 l/m 7,2 km/h W 11,6 C 21,4 C 31,3 km/h
30.07.2011 16:00 20,7 C 56 % 1010,3 hPa 0,0 l/m 6,4 km/h W-SW 11,6 C 20,7 C 29,8 km/h
30.07.2011 17:00 19,9 C 57 % 1010,4 hPa 0,0 l/m 5,6 km/h W-SW 11,1 C 19,9 C 25,8 km/h
30.07.2011 18:00 20,3 C 59 % 1010,5 hPa 0,0 l/m 5,6 km/h W-SW 11,9 C 20,3 C 26,5 km/h
30.07.2011 19:00 19,2 C 65 % 1010,6 hPa 0,0 l/m 3,2 km/h N-NW 12,3 C 19,2 C 16,9 km/h
30.07.2011 20:00 17,3 C 74 % 1010,7 hPa 0,0 l/m 3,2 km/h N-NW 12,6 C 17,3 C 20,1 km/h
30.07.2011 21:00 15,8 C 77 % 1010,5 hPa 0,0 l/m 7,2 km/h NW 11,8 C 15,4 C 27,4 km/h
30.07.2011 22:00 15,4 C 77 % 1010,8 hPa 0,0 l/m 7,2 km/h W-SW 11,3 C 15,0 C 26,5 km/h
30.07.2011 23:00 15,6 C 75 % 1010,5 hPa 0,0 l/m 8,0 km/h W 11,1 C 14,8 C 37,0 km/h
31.07.2011 00:00 15,3 C 78 % 1010,8 hPa 0,0 l/m 5,6 km/h SW 11,4 C 15,3 C 25,8 km/h
31.07.2011 01:00 15,2 C 79 % 1010,7 hPa 0,0 l/m 5,6 km/h W 11,5 C 15,2 C 24,9 km/h
31.07.2011 02:00 15,1 C 79 % 1010,2 hPa 0,0 l/m 6,4 km/h SW 11,5 C 15,1 C 32,2 km/h
31.07.2011 03:00 14,9 C 80 % 1009,8 hPa 0,3 l/m 7,2 km/h W-SW 11,5 C 14,5 C 35,4 km/h
31.07.2011 04:00 14,8 C 81 % 1009,9 hPa 0,0 l/m 7,2 km/h W-SW 11,5 C 14,3 C 37,8 km/h
31.07.2011 05:00 14,8 C 81 % 1009,9 hPa 0,0 l/m 8,0 km/h W-SW 11,5 C 13,8 C 34,6 km/h
31.07.2011 06:00 14,9 C 80 % 1010,3 hPa 0,0 l/m 5,6 km/h SW 11,5 C 14,9 C 30,5 km/h
31.07.2011 07:00 15,2 C 80 % 1010,6 hPa 0,0 l/m 4,0 km/h S-SW 11,7 C 15,2 C 23,3 km/h
31.07.2011 08:00 15,5 C 79 % 1011,1 hPa 0,0 l/m 4,8 km/h W-SW 11,9 C 15,5 C 25,0 km/h
31.07.2011 09:00 16,4 C 76 % 1011,2 hPa 0,0 l/m 5,4 km/h N-NW 12,2 C 16,4 C 24,1 km/h
31.07.2011 10:00 17,3 C 73 % 1011,5 hPa 0,0 l/m 6,5 km/h W 12,4 C 16,9 C 21,3 km/h
31.07.2011 11:00 17,5 C 71 % 1011,8 hPa 0,0 l/m 5,3 km/h SW 12,2 C 17,5 C 23,7 km/h
31.07.2011 12:00 17,2 C 72 % 1012,2 hPa 0,0 l/m 4,0 km/h W-SW 12,0 C 17,2 C 20,9 km/h
31.07.2011 13:00 17,5 C 70 % 1012,2 hPa 0,0 l/m 3,4 km/h N-NW 12,0 C 17,5 C 20,5 km/h
31.07.2011 14:00 18,4 C 69 % 1012,3 hPa 0,0 l/m 3,9 km/h N-NW 12,5 C 18,4 C 19,7 km/h
31.07.2011 15:00 18,4 C 68 % 1012,4 hPa 0,0 l/m 4,6 km/h N-NW 12,4 C 18,4 C 21,3 km/h
31.07.2011 16:00 18,3 C 71 % 1012,2 hPa 0,0 l/m 5,1 km/h N-NW 12,8 C 18,3 C 14,5 km/h
31.07.2011 17:00 18,4 C 72 % 1012,1 hPa 0,0 l/m 4,5 km/h N 13,2 C 18,4 C 14,5 km/h
31.07.2011 18:00 18,3 C 73 % 1012,3 hPa 0,0 l/m 2,6 km/h N-NW 13,3 C 18,3 C 8,9 km/h
31.07.2011 19:00 17,7 C 73 % 1012,4 hPa 0,0 l/m 2,3 km/h O-SO 12,9 C 17,7 C 8,8 km/h
31.07.2011 20:00 17,3 C 75 % 1012,9 hPa 0,0 l/m 2,6 km/h N-NO 12,8 C 17,3 C 8,9 km/h
31.07.2011 21:00 16,8 C 77 % 1013,3 hPa 0,0 l/m 2,0 km/h N-NW 12,6 C 16,8 C 11,7 km/h
31.07.2011 22:00 16,4 C 78 % 1013,5 hPa 0,0 l/m 2,3 km/h NO 12,5 C 16,4 C 10,1 km/h
31.07.2011 23:00 16,1 C 79 % 1013,9 hPa 0,0 l/m 1,7 km/h N-NW 12,4 C 16,1 C 8,4 km/h
Min-Datum _ 25.07.11 27.07.11 25.07.11 - 26.07.11 - 25.07.11 25.07.11 26.07.11
_ Min-Zeit 00:45 15:00 00:00 - 20:15 - 06:30 00:45 20:45
Minimum _ 12,4 C 44 % 1008,9 hPa - 0,0 km/h - 9,3 C 12,4 C 0,0 km/h
Max-Datum _ 27.07.11 25.07.11 27.07.11 28.07.11 31.07.11 - 28.07.11 27.07.11 30.07.11
_ Max-Zeit 15:00 00:15 10:15 14:30 10:15 - 12:30 15:00 23:00
Maximum _ 28,9 C 82 % 1016,5 hPa 26,8 l/m 8,2 km/h
W
- 17,4 C 28,9 C 45,1 km/h
W-SW
Durchschnitt _ 17,6 C 74 % 1012,6 hPa #47,3 l/m 2,6 km/h N-NW 12,8 C 17,6 C 11,5 km/h